Terminal Aerodrome Forecast
Issued by NWS

Home | Current Version | Previous Version | Text Only | Print | Product List | Glossary On
Versions: 1 2 3 4 5 6 7 8 9 10 11 12 13 14 15 16 17 18 19 20 21 22 23 24 25 26 27 28 29
000
FTUS44 KEWX 012343
TAFSSF
TAF
KSSF 012343Z 0200/0224 15008KT P6SM SCT030 BKN250
     FM021200 17006KT P6SM BKN030
      TEMPO 0214/0216 BKN015
     FM021600 16015KT P6SM SCT025 BKN040=

USA.gov is the U.S. government's official web portal to all federal, state and local government web resources and services.